Weather History for KLCK - January, 2014

Change the Weather History Date:

Monday, January 27, 2014

  Actual Average Record
Temperature  
Mean Temperature 20 °F -  
Max Temperature 40 °F 36 °F 66 °F (1999)
Min Temperature -1 °F 20 °F -9 °F (2003)
Degree Days  
Heating Degree Days 45    
Moisture  
Dew Point 0 °F    
Average Humidity 53    
Maximum Humidity 71    
Minimum Humidity 42    
Precipitation  
Precipitation 0.00 in - - ()
Sea Level Pressure  
Sea Level Pressure 30.07 in    
Wind  
Wind Speed 15 mph (West)    
Max Wind Speed 32 mph    
Max Gust Speed 39 mph    
Visibility 10 miles    
Events Snow    
Averages and records for this station are not official NWS values.
T = Trace of Precipitation, MM = Missing Value Source: NWS Daily Summary

Daily Weather History Graph

Daily Weather History Graph

Search for Another Location

Airport or City:

Trip Planner

Search our weather history database for the weather conditions in past years. The results will help you decide how hot, cold, wet, or windy it might be!

Date:

Astronomy

Jan. 27, 2014 Rise Set
Actual Time 7:44 AM EST 5:45 PM EST
Civil Twilight 7:15 AM EST 6:14 PM EST
Nautical Twilight 6:42 AM EST 6:46 PM EST
Astronomical Twilight 6:10 AM EST 7:18 PM EST
Moon 4:24 AM EST (1/27) 2:30 PM EST (1/27)
Length of Visible Light 10h 58m
Length of Day
10h 01m
Waning Crescent, 15% of the Moon is Illuminated
Jan 27
Waning Crescent
Jan 30
New
Feb 6
First Quarter
Feb 14
Full
Feb 22
Last Quarter

Hourly Weather History & Observations

Time (EST) Temp. Windchill Dew Point Humidity Pressure Visibility Wind Dir Wind Speed Gust Speed Precip Events Conditions
12:15 AM 38.7 °F 31.4 °F 26.6 °F 62% 29.53 in 10.0 mi SSW 11.5 mph - N/A   Overcast
12:35 AM 38.7 °F 31.4 °F 27.0 °F 63% 29.53 in 10.0 mi SSW 11.5 mph - N/A   Overcast
12:55 AM 38.5 °F 31.1 °F 27.3 °F 64% 29.53 in 10.0 mi South 11.5 mph - N/A   Overcast
1:15 AM 38.7 °F 30.5 °F 27.7 °F 65% 29.52 in 10.0 mi SSW 13.8 mph - N/A   Overcast
1:35 AM 38.8 °F 31.6 °F 28.2 °F 66% 29.52 in 10.0 mi South 11.5 mph - N/A   Overcast
1:55 AM 38.3 °F 31.9 °F 28.8 °F 69% 29.53 in 10.0 mi SW 9.2 mph - N/A   Overcast
2:15 AM 40.3 °F 30.7 °F 29.1 °F 64% 29.55 in 10.0 mi WSW 20.7 mph 28.8 mph N/A   Overcast
2:35 AM 37.9 °F 26.8 °F 26.8 °F 64% 29.61 in 10.0 mi NW 24.2 mph 33.4 mph N/A   Overcast
2:55 AM 33.3 °F 19.6 °F 24.4 °F 70% 29.66 in 10.0 mi NW 28.8 mph 36.8 mph N/A   Overcast
3:15 AM 29.5 °F 17.6 °F 21.2 °F 71% 29.70 in 7.0 mi WNW 17.3 mph 35.7 mph N/A Snow Light Snow
3:35 AM 26.2 °F 11.2 °F 17.6 °F 70% 29.73 in 2.5 mi WNW 24.2 mph 38.0 mph N/A Snow Light Snow
3:55 AM 25.0 °F 9.9 °F 13.6 °F 62% 29.75 in 10.0 mi West 23.0 mph 29.9 mph N/A   Overcast
4:15 AM 23.4 °F 8.1 °F 5.4 °F 46% 29.78 in 5.0 mi WNW 21.9 mph 38.0 mph N/A   Haze
4:35 AM 22.1 °F 9.5 °F 2.3 °F 42% 29.81 in 10.0 mi WNW 13.8 mph 24.2 mph N/A   Overcast
4:55 AM 21.0 °F 2.2 °F 2.1 °F 44% 29.84 in 4.0 mi West 32.2 mph 39.1 mph N/A   Haze
5:15 AM 19.6 °F 1.7 °F -0.2 °F 42% 29.86 in 7.0 mi WNW 26.5 mph 35.7 mph N/A   Overcast
5:35 AM 19.0 °F 3.6 °F -0.6 °F 42% 29.89 in 10.0 mi WNW 18.4 mph 28.8 mph N/A   Overcast
5:55 AM 17.1 °F -0.6 °F 1.9 °F 52% 29.92 in 5.0 mi WNW 23.0 mph 34.5 mph N/A   Haze
6:15 AM 15.4 °F -1.6 °F 1.9 °F 55% 29.94 in 10.0 mi West 19.6 mph 27.6 mph N/A   Overcast
6:35 AM 14.9 °F -1.3 °F 2.3 °F 57% 29.95 in 10.0 mi West 17.3 mph - N/A   Mostly Cloudy
6:55 AM 14.2 °F -2.7 °F 1.9 °F 58% 29.98 in 10.0 mi West 18.4 mph 25.3 mph N/A   Mostly Cloudy
7:15 AM 13.3 °F -3.9 °F 0.5 °F 57% 30.00 in 10.0 mi WNW 18.4 mph 26.5 mph N/A   Scattered Clouds
7:35 AM 12.4 °F -4.1 °F -0.4 °F 57% 30.02 in 10.0 mi WNW 16.1 mph 23.0 mph N/A   Clear
7:55 AM 11.3 °F -5.5 °F -0.6 °F 59% 30.04 in 10.0 mi West 16.1 mph 24.2 mph N/A   Clear
8:15 AM 10.9 °F -7.5 °F -0.9 °F 59% 30.06 in 10.0 mi West 19.6 mph 24.2 mph N/A   Clear
8:35 AM 10.8 °F -4.3 °F -1.5 °F 58% 30.06 in 10.0 mi West 12.7 mph - N/A   Clear
8:55 AM 10.4 °F -6.0 °F -1.8 °F 58% 30.08 in 10.0 mi West 15.0 mph 24.2 mph N/A   Clear
9:15 AM 10.4 °F -6.6 °F -2.4 °F 56% 30.11 in 10.0 mi West 16.1 mph 19.6 mph N/A   Clear
9:35 AM 10.0 °F -6.5 °F -3.1 °F 55% 30.11 in 10.0 mi West 15.0 mph - N/A   Clear
9:55 AM 10.0 °F -7.1 °F -3.5 °F 55% 30.13 in 10.0 mi West 16.1 mph - N/A   Clear
10:15 AM 9.9 °F -7.3 °F -3.8 °F 54% 30.15 in 10.0 mi West 16.1 mph - N/A   Clear
10:35 AM 9.9 °F -6.1 °F -4.2 °F 53% 30.15 in 10.0 mi West 13.8 mph 19.6 mph N/A   Clear
10:55 AM 10.6 °F -5.8 °F -3.6 °F 53% 30.16 in 10.0 mi West 15.0 mph 21.9 mph N/A   Clear
11:15 AM 12.4 °F -2.3 °F -2.9 °F 50% 30.17 in 10.0 mi WNW 12.7 mph 18.4 mph N/A   Clear
11:35 AM 11.8 °F -1.5 °F -3.8 °F 50% 30.18 in 10.0 mi West 10.4 mph - N/A   Clear
11:55 AM 11.7 °F -3.2 °F -4.0 °F 50% 30.18 in 10.0 mi West 12.7 mph 17.3 mph N/A   Clear
12:15 PM 11.8 °F -3.6 °F -3.6 °F 50% 30.17 in 10.0 mi West 13.8 mph 18.4 mph N/A   Clear
12:35 PM 11.8 °F -2.3 °F -4.2 °F 49% 30.17 in 10.0 mi West 11.5 mph - N/A   Clear
12:55 PM 12.2 °F -2.5 °F -3.1 °F 50% 30.16 in 10.0 mi WSW 12.7 mph - N/A   Clear
1:15 PM 12.0 °F -2.7 °F -3.6 °F 50% 30.16 in 10.0 mi West 12.7 mph 17.3 mph N/A   Clear
1:35 PM 11.7 °F -3.8 °F -3.8 °F 50% 30.16 in 10.0 mi West 13.8 mph - N/A   Clear
1:55 PM 12.0 °F -4.5 °F -3.5 °F 50% 30.16 in 10.0 mi West 16.1 mph 21.9 mph N/A   Clear
2:15 PM 12.4 °F -4.1 °F -3.5 °F 49% 30.16 in 10.0 mi West 16.1 mph 20.7 mph N/A   Clear
2:35 PM 12.4 °F -3.5 °F -4.0 °F 48% 30.16 in 10.0 mi West 15.0 mph 20.7 mph N/A   Clear
2:55 PM 12.6 °F -3.3 °F -3.6 °F 48% 30.17 in 10.0 mi West 15.0 mph - N/A   Clear
3:15 PM 12.6 °F -2.7 °F -4.2 °F 47% 30.17 in 10.0 mi West 13.8 mph - N/A   Clear
3:35 PM 12.0 °F -4.0 °F -4.5 °F 48% 30.18 in 10.0 mi West 15.0 mph - N/A   Clear
3:55 PM 12.0 °F -2.7 °F -4.9 °F 47% 30.18 in 10.0 mi West 12.7 mph 20.7 mph N/A   Clear
4:15 PM 11.8 °F -5.3 °F -5.6 °F 46% 30.18 in 10.0 mi West 17.3 mph 21.9 mph N/A   Clear
4:35 PM 11.1 °F -5.1 °F -7.2 °F 44% 30.19 in 10.0 mi West 15.0 mph 23.0 mph N/A   Clear
4:55 PM 10.4 °F -6.6 °F -8.3 °F 43% 30.20 in 10.0 mi West 16.1 mph - N/A   Clear
5:15 PM 9.9 °F -3.1 °F -8.5 °F 43% 30.21 in 10.0 mi West 9.2 mph - N/A   Clear
5:35 PM 9.1 °F -4.9 °F -8.9 °F 44% 30.22 in 10.0 mi WNW 10.4 mph - N/A   Clear
5:55 PM 8.2 °F -5.1 °F -9.8 °F 44% 30.23 in 10.0 mi WNW 9.2 mph - N/A   Clear
6:15 PM 7.2 °F -4.3 °F -10.1 °F 45% 30.24 in 10.0 mi WNW 6.9 mph - N/A   Clear
6:35 PM 6.4 °F -7.3 °F -10.3 °F 46% 30.25 in 10.0 mi WNW 9.2 mph - N/A   Clear
6:55 PM 6.1 °F -8.7 °F -10.5 °F 47% 30.27 in 10.0 mi WNW 10.4 mph - N/A   Clear
7:15 PM 5.5 °F -6.3 °F -10.5 °F 48% 30.28 in 10.0 mi WNW 6.9 mph - N/A   Clear
7:35 PM 5.2 °F -7.9 °F -10.5 °F 49% 30.29 in 10.0 mi WNW 8.1 mph - N/A   Clear
7:55 PM 4.6 °F -10.4 °F -10.1 °F 51% 30.30 in 10.0 mi NW 10.4 mph - N/A   Clear
8:15 PM 4.5 °F -7.6 °F -9.4 °F 53% 30.31 in 10.0 mi WNW 6.9 mph - N/A   Clear
8:35 PM 3.9 °F -8.2 °F -9.4 °F 54% 30.31 in 10.0 mi WNW 6.9 mph - N/A   Clear
8:55 PM 3.4 °F -12.0 °F -9.6 °F 55% 30.32 in 10.0 mi WNW 10.4 mph - N/A   Clear
9:15 PM 3.4 °F -12.0 °F -9.6 °F 55% 30.33 in 10.0 mi WNW 10.4 mph - N/A   Clear
9:35 PM 2.8 °F -14.3 °F -9.9 °F 55% 30.34 in 10.0 mi WNW 12.7 mph - N/A   Clear
9:55 PM 2.5 °F -13.1 °F -11.0 °F 53% 30.36 in 10.0 mi WNW 10.4 mph 18.4 mph N/A   Clear
10:15 PM 1.6 °F -15.1 °F -11.6 °F 54% 30.37 in 10.0 mi WNW 11.5 mph - N/A   Clear
10:35 PM 1.2 °F -14.7 °F -11.9 °F 54% 30.37 in 10.0 mi WNW 10.4 mph - N/A   Clear
10:55 PM 0.7 °F -13.3 °F -11.9 °F 56% 30.39 in 10.0 mi WNW 8.1 mph - N/A   Clear
11:15 PM 0.1 °F -12.8 °F -12.5 °F 55% 30.38 in 10.0 mi WNW 6.9 mph - N/A   Clear
11:35 PM -0.9 °F -14.1 °F -13.0 °F 57% 30.39 in 10.0 mi West 6.9 mph - N/A   Clear
11:55 PM -1.7 °F -14.9 °F -13.7 °F 57% 30.39 in 10.0 mi West 6.9 mph - N/A   Clear